Aldine, Texas
Current Conditions -  °F | °C
As of 3:53 PM on Tuesday 25 Nov 2014 (Local Time) from KIAH Reporting Station
Few Clouds Few Clouds  
Wind Chill: 66°   Ceiling: Unl
Heat Index: 66°   Visibility: 10mi
Dew Point: 26°   Wind: 12mph
Humidity: 22%   Direction: 280°W
Pressure: 30.22"   Gusts: 16mph
Location:  29.93°N, 95.38°W
Report Text: KIAH 252153Z 28010G14KT 10SM FEW080 19/M03 A3022 RMK AO2 SLP234 T01891033
Loading
Personal Weather Stations






























Interactive Weather Map New forecast layout! Learn more

10-Day Weather Forecast

Advertisements
Track Severe Weather on mobile